Time;durP1;ratioP1;P1;durP2;ratioP2;P2;SDS_P1;SDS_P2;PMS_P1;PMS_P2;Temp;Humidity;BMP_temperature;BMP_pressure;BME280_temperature;BME280_humidity;BME280_pressure;Samples;Min_cycle;Max_cycle;Signal;HPM_P1;HPM_P2
2024/03/02 00:00:02;;;;;;;2.67;2.47;;;4.70;99.90;;;;;;5044574;28;20402;-83
2024/03/02 00:02:28;;;;;;;4.03;2.40;;;4.60;99.90;;;;;;5036566;28;20925;-83
2024/03/02 00:04:54;;;;;;;2.83;2.63;;;4.40;99.90;;;;;;5036474;28;20399;-83
2024/03/02 00:07:19;;;;;;;3.53;2.80;;;4.60;99.90;;;;;;5015587;28;20461;-83
2024/03/02 00:09:45;;;;;;;3.50;2.80;;;4.30;99.90;;;;;;5017355;28;20388;-83
2024/03/02 00:12:15;;;;;;;3.20;2.60;;;4.70;99.90;;;;;;4999300;28;20392;-82
2024/03/02 00:14:41;;;;;;;2.55;2.35;;;4.60;99.90;;;;;;5045698;28;20449;-84
2024/03/02 00:17:21;;;;;;;3.13;2.50;;;4.90;99.90;;;;;;5039268;28;20397;-81
2024/03/02 00:19:46;;;;;;;2.53;2.30;;;4.70;99.90;;;;;;5056689;28;20388;-82
2024/03/02 00:22:12;;;;;;;2.70;2.50;;;4.70;99.90;;;;;;5056021;28;20480;-82
2024/03/02 00:24:39;;;;;;;2.22;2.03;;;4.70;99.90;;;;;;5036070;28;20482;-82
2024/03/02 00:27:07;;;;;;;3.60;2.80;;;4.70;99.90;;;;;;5032709;28;20431;-83
2024/03/02 00:29:32;;;;;;;2.50;2.30;;;4.60;99.90;;;;;;5004926;28;20492;-83
2024/03/02 00:31:58;;;;;;;3.20;2.20;;;4.60;99.90;;;;;;5016160;28;20442;-83
2024/03/02 00:34:24;;;;;;;3.20;2.60;;;5.10;99.90;;;;;;5041979;28;20456;-83
2024/03/02 00:36:50;;;;;;;2.60;2.20;;;4.60;99.90;;;;;;5035103;28;20398;-83
2024/03/02 00:39:17;;;;;;;2.50;2.30;;;4.80;99.90;;;;;;5027667;28;20394;-83
2024/03/02 00:41:43;;;;;;;2.88;2.10;;;4.70;99.90;;;;;;5011160;28;20412;-83
2024/03/02 00:44:13;;;;;;;3.40;2.63;;;4.80;99.90;;;;;;5004453;28;20400;-83
2024/03/02 00:46:40;;;;;;;2.45;2.25;;;4.80;99.90;;;;;;5010949;28;20391;-82
2024/03/02 00:49:19;;;;;;;2.88;2.60;;;4.80;99.90;;;;;;5023535;28;20391;-82
2024/03/02 00:51:48;;;;;;;2.90;2.60;;;4.80;99.90;;;;;;5018706;28;20414;-81
2024/03/02 00:54:14;;;;;;;2.20;2.00;;;4.90;99.90;;;;;;5025324;28;20393;-83
2024/03/02 00:56:42;;;;;;;3.55;2.85;;;4.70;99.90;;;;;;5028828;28;20391;-84
2024/03/02 00:59:08;;;;;;;2.70;2.50;;;4.80;99.90;;;;;;5033686;28;20440;-83
2024/03/02 01:01:33;;;;;;;2.80;2.50;;;4.80;99.90;;;;;;5036476;28;20540;-83
2024/03/02 01:03:59;;;;;;;2.37;2.17;;;4.80;99.90;;;;;;5032608;28;20936;-83
2024/03/02 01:06:25;;;;;;;2.47;2.10;;;4.60;99.90;;;;;;4998498;28;20753;-83
2024/03/02 01:08:51;;;;;;;2.93;2.43;;;4.80;99.90;;;;;;5034139;28;20466;-83
2024/03/02 01:11:17;;;;;;;3.40;2.40;;;4.70;99.90;;;;;;5048709;28;20385;-82
2024/03/02 01:13:43;;;;;;;2.80;2.50;;;4.80;99.90;;;;;;5032960;28;20403;-83
2024/03/02 01:16:09;;;;;;;4.30;2.85;;;4.70;99.90;;;;;;5027484;28;20391;-83
2024/03/02 01:18:34;;;;;;;3.63;2.80;;;4.20;99.90;;;;;;5039934;28;20450;-84
2024/03/02 01:21:00;;;;;;;2.90;2.40;;;4.70;99.90;;;;;;5040351;28;20387;-84
2024/03/02 01:23:26;;;;;;;2.90;2.60;;;4.70;99.90;;;;;;5039323;28;20401;-82
2024/03/02 01:25:52;;;;;;;2.80;2.60;;;4.70;99.90;;;;;;5034709;28;20394;-82
2024/03/02 01:28:20;;;;;;;2.90;2.60;;;4.90;99.90;;;;;;5027814;28;20398;-82
2024/03/02 01:30:46;;;;;;;2.97;2.40;;;4.90;99.90;;;;;;5048721;28;20470;-81
2024/03/02 01:33:11;;;;;;;2.40;2.20;;;4.70;99.90;;;;;;5044524;28;20797;-82
2024/03/02 01:35:37;;;;;;;2.70;2.50;;;4.70;99.90;;;;;;5039989;28;20520;-82
2024/03/02 01:38:05;;;;;;;2.80;2.50;;;4.60;99.90;;;;;;5069602;28;20473;-81
2024/03/02 01:40:32;;;;;;;3.10;2.80;;;4.70;99.90;;;;;;5047416;28;20401;-81
2024/03/02 01:43:00;;;;;;;2.60;2.40;;;4.60;99.90;;;;;;5022593;28;20790;-81
2024/03/02 01:45:26;;;;;;;3.45;2.70;;;4.60;99.90;;;;;;5049012;28;20406;-81
2024/03/02 01:47:52;;;;;;;2.70;2.50;;;4.60;99.90;;;;;;5037295;28;20375;-81
2024/03/02 01:50:25;;;;;;;2.50;2.30;;;4.30;99.90;;;;;;5034013;28;20442;-82
2024/03/02 01:52:51;;;;;;;2.70;2.50;;;4.60;99.90;;;;;;5038995;28;20897;-81
2024/03/02 01:55:16;;;;;;;2.63;2.42;;;4.80;99.90;;;;;;5035662;28;20434;-82
2024/03/02 01:57:44;;;;;;;2.70;2.37;;;4.60;99.90;;;;;;5046550;28;20389;-82
2024/03/02 02:00:10;;;;;;;2.70;2.47;;;4.50;99.90;;;;;;5041061;28;20488;-82
2024/03/02 02:02:36;;;;;;;2.92;2.60;;;4.60;99.90;;;;;;5060463;28;20811;-81
2024/03/02 02:05:02;;;;;;;3.57;2.50;;;5.30;99.90;;;;;;5030282;28;20467;-82
2024/03/02 02:07:27;;;;;;;2.40;2.10;;;4.70;99.90;;;;;;5040792;28;20391;-83
2024/03/02 02:09:53;;;;;;;2.37;2.17;;;6.50;99.90;;;;;;5041632;28;20385;-81
2024/03/02 02:12:21;;;;;;;3.72;2.63;;;4.60;99.90;;;;;;5058627;28;20382;-83
2024/03/02 02:14:48;;;;;;;2.90;2.38;;;4.50;99.90;;;;;;5018415;28;21003;-83
2024/03/02 02:17:14;;;;;;;2.50;2.30;;;4.50;99.90;;;;;;5031239;28;20430;-83
2024/03/02 02:19:41;;;;;;;2.70;2.30;;;4.30;99.90;;;;;;5021364;28;20404;-83
2024/03/02 02:22:06;;;;;;;2.40;2.17;;;4.60;99.90;;;;;;5037939;28;20782;-82
2024/03/02 02:24:32;;;;;;;3.53;2.60;;;4.60;99.90;;;;;;5034448;28;20398;-83
2024/03/02 02:26:57;;;;;;;2.63;2.40;;;4.60;99.90;;;;;;5026071;28;20765;-82
2024/03/02 02:29:23;;;;;;;2.80;2.60;;;4.80;99.90;;;;;;5052273;28;20389;-81
2024/03/02 02:31:48;;;;;;;2.63;2.20;;;4.60;99.90;;;;;;5057510;28;20888;-81
2024/03/02 02:34:15;;;;;;;2.25;2.05;;;4.50;99.90;;;;;;5058654;28;20402;-81
2024/03/02 02:36:42;;;;;;;3.10;2.30;;;4.80;99.90;;;;;;5034906;28;20405;-80
2024/03/02 02:39:12;;;;;;;3.45;2.70;;;4.50;99.90;;;;;;5054195;28;20378;-80
2024/03/02 02:41:37;;;;;;;3.00;2.70;;;4.40;99.90;;;;;;5046779;28;20416;-81
2024/03/02 02:44:03;;;;;;;2.50;2.30;;;4.30;99.90;;;;;;5045552;28;20379;-82
2024/03/02 02:46:29;;;;;;;2.47;2.27;;;4.60;99.90;;;;;;5046611;28;21113;-82
2024/03/02 02:48:54;;;;;;;2.67;2.47;;;4.40;99.90;;;;;;5042798;28;20379;-82
2024/03/02 02:51:20;;;;;;;2.90;2.50;;;4.90;99.90;;;;;;5047096;28;20404;-82
2024/03/02 02:53:45;;;;;;;2.60;2.00;;;4.50;99.90;;;;;;5057378;28;20375;-81
2024/03/02 02:56:11;;;;;;;2.90;2.67;;;4.50;99.90;;;;;;5047160;28;20401;-82
2024/03/02 02:58:37;;;;;;;2.37;2.17;;;4.20;99.90;;;;;;5045694;28;20440;-82
2024/03/02 03:01:02;;;;;;;2.90;2.70;;;4.50;99.90;;;;;;5030626;28;20430;-82
2024/03/02 03:03:28;;;;;;;3.03;2.57;;;4.60;99.90;;;;;;5052333;28;20418;-82
2024/03/02 03:05:53;;;;;;;2.60;2.40;;;4.60;99.90;;;;;;5047757;28;20428;-81
2024/03/02 03:08:19;;;;;;;2.30;2.00;;;4.40;99.90;;;;;;5016908;28;20407;-82
2024/03/02 03:10:44;;;;;;;3.30;2.30;;;4.60;99.90;;;;;;5040767;28;20379;-81
2024/03/02 03:13:10;;;;;;;2.58;2.08;;;4.60;99.90;;;;;;5051846;28;20391;-82
2024/03/02 03:15:38;;;;;;;2.30;2.10;;;4.60;99.90;;;;;;5052484;28;20434;-82
2024/03/02 03:18:04;;;;;;;3.50;2.03;;;4.30;99.90;;;;;;5054775;28;20394;-83
2024/03/02 03:20:30;;;;;;;2.17;1.98;;;4.30;99.90;;;;;;5041981;28;20377;-82
2024/03/02 03:22:56;;;;;;;2.38;1.80;;;4.60;99.90;;;;;;5074778;22;20467;-82
2024/03/02 03:25:22;;;;;;;2.00;1.65;;;4.20;99.90;;;;;;5084531;28;20443;-82
2024/03/02 03:27:48;;;;;;;2.40;2.10;;;4.60;99.90;;;;;;5085337;28;20383;-82
2024/03/02 03:30:13;;;;;;;2.15;1.95;;;4.50;99.90;;;;;;5089269;28;20380;-82
2024/03/02 03:32:40;;;;;;;3.85;2.03;;;4.50;99.90;;;;;;5101577;28;20771;-81
2024/03/02 03:35:06;;;;;;;2.40;1.90;;;4.10;99.90;;;;;;5064594;28;20453;-81
2024/03/02 03:37:32;;;;;;;2.08;1.70;;;4.70;99.90;;;;;;5066803;28;20465;-80
2024/03/02 03:39:59;;;;;;;2.25;1.80;;;4.30;99.90;;;;;;5071010;28;20460;-81
2024/03/02 03:42:25;;;;;;;1.98;1.65;;;4.50;99.90;;;;;;5080571;28;20407;-80
2024/03/02 03:44:50;;;;;;;2.33;2.13;;;4.10;99.90;;;;;;5093870;28;20383;-80
2024/03/02 03:47:16;;;;;;;2.30;1.83;;;4.40;99.90;;;;;;5083869;28;20418;-81
2024/03/02 03:49:41;;;;;;;3.03;1.80;;;4.50;99.90;;;;;;5078698;28;20428;-81
2024/03/02 03:52:07;;;;;;;1.70;1.60;;;4.30;99.90;;;;;;5070998;28;20394;-81
2024/03/02 03:54:32;;;;;;;2.00;1.80;;;4.40;99.90;;;;;;5075432;28;20437;-81
2024/03/02 03:56:58;;;;;;;1.73;1.58;;;4.60;99.90;;;;;;5070030;28;20389;-81
2024/03/02 03:59:23;;;;;;;1.90;1.80;;;4.10;99.90;;;;;;5084561;28;20394;-81
2024/03/02 04:01:49;;;;;;;2.13;1.70;;;4.30;99.90;;;;;;5070186;28;20407;-81
2024/03/02 04:04:14;;;;;;;2.20;1.90;;;4.50;99.90;;;;;;5068227;28;20464;-81
2024/03/02 04:06:40;;;;;;;2.30;1.77;;;4.20;99.90;;;;;;5066691;28;21006;-81
2024/03/02 04:09:06;;;;;;;1.80;1.70;;;4.50;99.90;;;;;;5066891;28;20377;-81
2024/03/02 04:11:31;;;;;;;2.00;1.60;;;4.70;99.90;;;;;;5083200;28;20395;-81
2024/03/02 04:13:57;;;;;;;1.70;1.60;;;4.40;99.90;;;;;;5081353;28;20389;-81
2024/03/02 04:16:22;;;;;;;1.70;1.57;;;4.30;99.90;;;;;;5062654;28;20408;-81
2024/03/02 04:18:48;;;;;;;1.50;1.40;;;4.30;99.90;;;;;;5065682;28;20767;-81
2024/03/02 04:21:14;;;;;;;2.07;1.50;;;4.10;99.90;;;;;;5074986;28;20841;-81
2024/03/02 04:23:39;;;;;;;2.83;1.40;;;4.40;99.90;;;;;;5072780;28;20396;-80
2024/03/02 04:26:05;;;;;;;2.50;2.30;;;4.80;99.90;;;;;;5069559;28;20788;-81
2024/03/02 04:28:30;;;;;;;1.50;1.40;;;4.50;99.90;;;;;;5065080;28;20798;-81
2024/03/02 04:30:56;;;;;;;1.50;1.30;;;4.40;99.90;;;;;;5065254;28;20389;-81
2024/03/02 04:33:22;;;;;;;1.60;1.38;;;3.90;99.90;;;;;;5077223;28;20843;-81
2024/03/02 04:35:47;;;;;;;1.65;1.48;;;4.50;99.90;;;;;;5066777;28;20397;-81
2024/03/02 04:38:13;;;;;;;1.90;1.60;;;4.40;99.90;;;;;;5062745;28;20401;-81
2024/03/02 04:40:38;;;;;;;1.70;1.60;;;4.50;99.90;;;;;;5063861;28;20385;-81
2024/03/02 04:43:04;;;;;;;1.60;1.50;;;4.40;99.90;;;;;;5067515;28;20396;-81
2024/03/02 04:45:29;;;;;;;2.00;1.80;;;4.60;99.90;;;;;;5081076;28;20387;-81
2024/03/02 04:47:55;;;;;;;2.20;1.10;;;4.20;99.90;;;;;;5066444;28;20518;-81
2024/03/02 04:50:20;;;;;;;1.83;1.47;;;4.40;99.90;;;;;;5080839;28;20385;-81
2024/03/02 04:52:46;;;;;;;1.40;1.30;;;4.90;99.90;;;;;;5084008;28;20433;-80
2024/03/02 04:57:56;;;;;;;2.40;1.20;;;4.90;99.90;;;;;;5067043;28;20389;-80
2024/03/02 05:00:21;;;;;;;1.63;1.17;;;4.80;99.90;;;;;;5075198;28;20397;-82
2024/03/02 05:02:47;;;;;;;1.40;1.30;;;4.90;99.90;;;;;;5068979;28;20420;-82
2024/03/02 05:05:14;;;;;;;1.80;1.30;;;4.90;99.90;;;;;;5078359;28;20381;-81
2024/03/02 05:07:42;;;;;;;1.98;1.30;;;5.20;99.90;;;;;;5067334;28;20389;-83
2024/03/02 05:10:08;;;;;;;2.40;1.50;;;4.90;99.90;;;;;;5067357;28;20470;-83
2024/03/02 05:15:10;;;;;;;2.30;1.30;;;5.30;99.90;;;;;;5048767;28;20394;-80
2024/03/02 05:17:36;;;;;;;2.00;1.13;;;5.20;99.90;;;;;;5073651;28;20400;-81
2024/03/02 05:20:02;;;;;;;3.10;1.30;;;4.90;99.90;;;;;;5075322;28;20757;-81
2024/03/02 05:22:28;;;;;;;1.63;1.50;;;5.20;99.90;;;;;;5067445;28;20460;-81
2024/03/02 05:24:54;;;;;;;1.60;1.50;;;5.10;99.90;;;;;;5067042;28;20405;-81
2024/03/02 05:27:19;;;;;;;1.87;1.67;;;5.00;99.90;;;;;;5065331;28;20395;-81
2024/03/02 05:29:45;;;;;;;2.05;1.27;;;5.10;99.90;;;;;;5066240;28;20428;-81
2024/03/02 05:32:10;;;;;;;1.50;1.35;;;5.20;99.90;;;;;;5065486;28;20440;-81
2024/03/02 05:34:36;;;;;;;1.75;1.48;;;5.20;99.90;;;;;;5084127;28;20449;-81
2024/03/02 05:37:02;;;;;;;1.60;1.50;;;4.90;99.90;;;;;;5072843;28;20623;-81
2024/03/02 05:39:27;;;;;;;1.60;1.40;;;5.20;99.90;;;;;;5069778;28;20410;-81
2024/03/02 05:41:53;;;;;;;2.70;1.70;;;5.40;99.90;;;;;;5085219;28;20411;-81
2024/03/02 05:44:19;;;;;;;5.10;1.70;;;5.10;99.90;;;;;;5070097;28;20792;-81
2024/03/02 05:46:45;;;;;;;1.52;1.30;;;5.40;99.90;;;;;;5065132;28;20392;-81
2024/03/02 05:49:10;;;;;;;1.63;1.50;;;5.30;99.90;;;;;;5085332;28;20408;-80
2024/03/02 05:51:36;;;;;;;2.00;1.80;;;5.50;99.90;;;;;;5083541;28;20387;-81
2024/03/02 05:54:01;;;;;;;1.70;1.60;;;5.50;99.90;;;;;;5083595;28;20379;-81
2024/03/02 05:56:27;;;;;;;2.43;1.53;;;7.30;99.90;;;;;;5077241;28;20393;-81
2024/03/02 05:59:07;;;;;;;2.50;1.52;;;5.20;99.90;;;;;;5084006;28;20453;-81
2024/03/02 06:01:33;;;;;;;2.03;1.23;;;5.40;99.90;;;;;;5088569;28;20431;-81
2024/03/02 06:03:58;;;;;;;2.30;1.50;;;5.60;99.90;;;;;;5079211;28;21163;-81
2024/03/02 06:06:25;;;;;;;2.10;1.23;;;5.30;99.90;;;;;;5070327;28;20405;-82
2024/03/02 06:08:50;;;;;;;2.50;1.42;;;5.70;99.90;;;;;;5088045;28;20421;-82
2024/03/02 06:11:16;;;;;;;1.42;1.30;;;5.90;99.90;;;;;;5087809;28;20411;-81
2024/03/02 06:13:42;;;;;;;1.60;1.42;;;5.90;99.90;;;;;;5076060;28;20378;-81
2024/03/02 06:16:08;;;;;;;1.70;1.17;;;5.70;99.90;;;;;;5067494;28;20429;-82
2024/03/02 06:18:34;;;;;;;1.80;1.37;;;5.80;99.90;;;;;;5068855;28;20378;-81
2024/03/02 06:21:00;;;;;;;1.60;1.42;;;5.80;99.90;;;;;;5069597;28;20438;-81
2024/03/02 06:23:26;;;;;;;1.40;1.10;;;5.90;99.90;;;;;;5085266;28;20946;-81
2024/03/02 06:25:52;;;;;;;2.08;1.23;;;5.60;99.90;;;;;;5064666;28;20488;-81
2024/03/02 06:28:17;;;;;;;1.45;1.30;;;6.10;99.90;;;;;;5066934;28;20385;-81
2024/03/02 06:30:43;;;;;;;2.88;1.70;;;6.00;99.90;;;;;;5068409;28;20381;-81
2024/03/02 06:33:09;;;;;;;1.60;1.30;;;6.10;99.90;;;;;;5072158;28;20490;-81
2024/03/02 06:35:35;;;;;;;1.70;1.60;;;5.50;99.90;;;;;;5071006;28;20400;-81
2024/03/02 06:38:01;;;;;;;3.50;1.60;;;5.70;99.90;;;;;;5066829;28;20401;-81
2024/03/02 06:40:27;;;;;;;1.50;1.40;;;8.90;99.90;;;;;;5069279;28;20428;-81
2024/03/02 06:42:52;;;;;;;1.70;1.60;;;6.10;99.90;;;;;;5066515;28;20409;-81
2024/03/02 06:45:18;;;;;;;1.70;1.60;;;6.10;99.90;;;;;;5073190;28;20389;-83
2024/03/02 06:47:43;;;;;;;1.60;1.50;;;6.00;99.90;;;;;;5076317;28;20391;-82
2024/03/02 06:50:09;;;;;;;1.90;1.70;;;5.90;99.90;;;;;;5093488;28;20419;-82
2024/03/02 06:52:36;;;;;;;1.60;1.50;;;5.90;99.90;;;;;;5088585;28;20514;-81
2024/03/02 06:55:01;;;;;;;3.10;1.50;;;6.10;99.90;;;;;;5068194;28;20668;-83
2024/03/02 06:57:27;;;;;;;2.90;1.53;;;6.00;99.90;;;;;;5061352;28;20391;-82
2024/03/02 06:59:54;;;;;;;1.80;1.50;;;6.00;99.90;;;;;;5086311;28;20751;-82
2024/03/02 07:02:21;;;;;;;1.50;1.40;;;6.20;99.90;;;;;;5069734;28;20413;-82
2024/03/02 07:04:46;;;;;;;1.60;1.30;;;6.40;99.90;;;;;;5070830;28;20379;-80
2024/03/02 07:07:12;;;;;;;2.65;1.40;;;6.40;99.90;;;;;;5090404;28;20430;-81
2024/03/02 07:09:38;;;;;;;1.70;1.60;;;6.40;99.90;;;;;;5088792;28;20450;-81
2024/03/02 07:12:03;;;;;;;2.05;1.85;;;6.50;99.90;;;;;;5075404;28;20457;-81
2024/03/02 07:17:13;;;;;;;2.33;1.70;;;6.40;99.90;;;;;;5070508;28;20396;-81
2024/03/02 07:19:39;;;;;;;2.50;1.80;;;6.50;99.90;;;;;;5066946;28;20479;-81
2024/03/02 07:22:08;;;;;;;2.03;1.60;;;6.70;99.90;;;;;;5065620;28;20436;-80
2024/03/02 07:24:40;;;;;;;2.10;1.70;;;8.60;99.90;;;;;;5078585;28;20427;-81
2024/03/02 07:27:06;;;;;;;2.90;1.83;;;6.80;99.90;;;;;;5067417;28;20390;-81
2024/03/02 07:29:32;;;;;;;1.60;1.50;;;6.80;99.90;;;;;;5067637;28;20385;-80
2024/03/02 07:31:57;;;;;;;1.83;1.70;;;8.50;99.90;;;;;;5064031;28;20441;-80
2024/03/02 07:34:23;;;;;;;2.00;1.53;;;6.70;99.90;;;;;;5069891;28;20410;-81
2024/03/02 07:36:48;;;;;;;2.10;1.90;;;6.80;99.90;;;;;;5073034;28;20483;-80
2024/03/02 07:39:14;;;;;;;2.33;1.80;;;7.10;99.90;;;;;;5069808;28;20416;-81
2024/03/02 07:41:39;;;;;;;1.92;1.60;;;7.20;99.90;;;;;;5065147;28;20435;-81
2024/03/02 07:44:05;;;;;;;2.50;1.70;;;7.40;99.90;;;;;;5075171;28;20396;-81
2024/03/02 07:46:31;;;;;;;2.15;1.67;;;7.10;99.90;;;;;;5076536;28;20390;-81
2024/03/02 07:48:56;;;;;;;1.93;1.60;;;7.30;99.90;;;;;;5074176;28;20816;-81
2024/03/02 07:51:22;;;;;;;2.00;1.67;;;7.50;99.90;;;;;;5064529;28;21094;-80
2024/03/02 07:53:47;;;;;;;1.90;1.70;;;7.70;99.90;;;;;;5065584;28;20404;-80
2024/03/02 07:56:13;;;;;;;2.20;1.80;;;7.60;99.90;;;;;;5078185;28;20444;-81
2024/03/02 07:58:38;;;;;;;2.22;1.73;;;7.90;99.90;;;;;;5081846;28;20415;-81
2024/03/02 08:01:04;;;;;;;3.60;1.80;;;7.80;99.90;;;;;;5076836;28;20403;-81
2024/03/02 08:03:29;;;;;;;3.47;1.85;;;8.00;99.90;;;;;;5078945;28;20399;-82
2024/03/02 08:05:55;;;;;;;2.30;2.00;;;8.20;99.90;;;;;;5073220;28;20396;-81
2024/03/02 08:08:21;;;;;;;2.10;1.90;;;8.20;99.90;;;;;;5079018;28;20391;-81
2024/03/02 08:10:46;;;;;;;1.77;1.60;;;7.90;99.90;;;;;;5076638;28;20403;-81
2024/03/02 08:13:12;;;;;;;2.03;1.83;;;8.20;99.90;;;;;;5074621;28;20381;-82
2024/03/02 08:15:37;;;;;;;1.60;1.50;;;8.40;99.90;;;;;;5082794;28;20927;-81
2024/03/02 08:18:03;;;;;;;2.60;2.10;;;8.20;99.90;;;;;;5080832;28;20392;-81
2024/03/02 08:20:29;;;;;;;3.00;1.95;;;8.50;99.90;;;;;;5080595;28;20390;-81
2024/03/02 08:22:55;;;;;;;1.90;1.70;;;8.30;99.90;;;;;;5073874;28;20413;-81
2024/03/02 08:25:20;;;;;;;1.80;1.60;;;8.60;99.90;;;;;;5080356;28;20396;-82
2024/03/02 08:27:46;;;;;;;2.10;1.90;;;8.80;99.90;;;;;;5081234;28;20423;-81
2024/03/02 08:30:12;;;;;;;2.45;1.80;;;8.50;99.90;;;;;;5089962;28;20380;-81
2024/03/02 08:32:38;;;;;;;1.98;1.70;;;9.00;99.90;;;;;;5077562;28;20412;-81
2024/03/02 08:35:04;;;;;;;1.95;1.80;;;9.10;99.90;;;;;;5080439;28;20399;-80
2024/03/02 08:37:30;;;;;;;2.33;1.67;;;9.20;99.90;;;;;;5082995;28;20403;-81
2024/03/02 08:39:56;;;;;;;1.60;1.50;;;9.20;99.90;;;;;;5076255;28;20396;-81
2024/03/02 08:42:22;;;;;;;2.00;1.80;;;9.20;99.90;;;;;;5074808;28;20421;-81
2024/03/02 08:44:48;;;;;;;4.93;1.67;;;9.30;99.90;;;;;;5077262;28;20398;-81
2024/03/02 08:47:13;;;;;;;1.50;1.40;;;9.50;99.90;;;;;;5074076;28;20393;-81
2024/03/02 08:49:39;;;;;;;1.40;1.30;;;9.40;99.90;;;;;;5071439;28;20396;-85
2024/03/02 08:52:05;;;;;;;1.30;1.20;;;9.50;99.90;;;;;;5081995;28;20413;-82
2024/03/02 08:54:31;;;;;;;2.13;1.42;;;10.00;99.90;;;;;;5072870;28;20472;-82
2024/03/02 08:56:56;;;;;;;3.40;1.60;;;11.20;99.90;;;;;;5068818;28;20392;-82
2024/03/02 08:59:22;;;;;;;1.90;1.50;;;10.40;99.90;;;;;;5068562;28;20488;-82
2024/03/02 09:01:48;;;;;;;1.90;1.77;;;10.40;99.90;;;;;;5068397;28;20461;-82
2024/03/02 09:04:13;;;;;;;2.42;1.50;;;10.30;99.90;;;;;;5070650;28;20386;-82
2024/03/02 09:06:39;;;;;;;1.70;1.33;;;10.70;99.90;;;;;;5067669;28;20394;-82
2024/03/02 09:09:04;;;;;;;1.27;1.17;;;10.50;99.90;;;;;;5069372;28;20394;-82
2024/03/02 09:11:30;;;;;;;1.50;1.30;;;10.30;99.90;;;;;;5068273;28;20502;-82
2024/03/02 09:13:56;;;;;;;2.22;1.30;;;10.90;99.90;;;;;;5068169;28;20538;-82
2024/03/02 09:16:22;;;;;;;5.38;4.55;;;11.00;99.90;;;;;;5069156;28;20911;-82
2024/03/02 09:18:47;;;;;;;2.00;1.20;;;10.90;99.90;;;;;;5066833;28;20424;-83
2024/03/02 09:21:13;;;;;;;2.00;1.10;;;11.10;99.90;;;;;;5067986;28;20398;-82
2024/03/02 09:23:40;;;;;;;1.10;1.00;;;11.60;99.90;;;;;;5066906;28;20452;-82
2024/03/02 09:26:05;;;;;;;1.30;1.02;;;11.60;99.90;;;;;;5067669;28;20392;-82
2024/03/02 09:28:31;;;;;;;1.60;0.90;;;11.50;99.90;;;;;;5068947;28;20395;-83
2024/03/02 09:30:56;;;;;;;1.20;1.10;;;11.90;99.90;;;;;;5068219;28;20385;-82
2024/03/02 09:33:22;;;;;;;1.40;1.00;;;11.10;99.90;;;;;;5071869;28;20393;-82
2024/03/02 09:35:48;;;;;;;1.10;1.00;;;12.00;99.90;;;;;;5078163;28;20391;-82
2024/03/02 09:38:14;;;;;;;1.60;1.00;;;11.50;99.90;;;;;;5074185;28;20460;-82
2024/03/02 09:40:42;;;;;;;1.30;0.80;;;11.80;99.90;;;;;;5071748;28;20408;-83
2024/03/02 09:43:08;;;;;;;0.87;0.87;;;12.10;99.90;;;;;;5072605;28;20454;-82
2024/03/02 09:45:34;;;;;;;0.98;0.70;;;11.70;99.90;;;;;;5071473;28;20384;-82
2024/03/02 09:47:59;;;;;;;0.70;0.70;;;13.90;99.90;;;;;;5071705;28;20391;-82
2024/03/02 09:50:25;;;;;;;0.97;0.70;;;13.80;99.90;;;;;;5072305;28;20400;-82
2024/03/02 09:52:51;;;;;;;0.83;0.70;;;;;;;;;;5073374;28;20393;-82
2024/03/02 09:55:18;;;;;;;1.40;0.80;;;12.60;99.90;;;;;;5072443;28;20426;-82
2024/03/02 09:57:45;;;;;;;1.20;0.70;;;12.90;99.90;;;;;;5070689;28;20393;-82
2024/03/02 10:00:14;;;;;;;1.00;0.70;;;12.70;99.90;;;;;;5070944;28;20441;-81
2024/03/02 10:02:41;;;;;;;1.00;0.70;;;12.30;99.90;;;;;;5071178;28;20410;-82
2024/03/02 10:05:08;;;;;;;0.80;0.60;;;11.90;99.90;;;;;;5066290;28;20409;-82
2024/03/02 10:07:34;;;;;;;0.95;0.70;;;13.00;99.90;;;;;;5068868;28;20393;-81
2024/03/02 10:10:13;;;;;;;0.60;0.60;;;12.50;99.90;;;;;;5070961;28;20419;-82
2024/03/02 10:12:39;;;;;;;1.38;0.60;;;12.80;99.90;;;;;;5071052;28;20490;-82
2024/03/02 10:15:05;;;;;;;0.80;0.50;;;15.10;99.90;;;;;;5069965;28;20933;-82
2024/03/02 10:17:31;;;;;;;1.70;0.70;;;13.30;99.90;;;;;;5070843;28;20410;-82
2024/03/02 10:19:57;;;;;;;0.60;0.50;;;13.30;99.90;;;;;;5068771;28;20406;-83
2024/03/02 10:22:23;;;;;;;0.90;0.60;;;12.90;99.90;;;;;;5071792;28;20431;-83
2024/03/02 10:24:49;;;;;;;0.85;0.70;;;12.70;99.90;;;;;;5071215;28;20410;-83
2024/03/02 10:27:30;;;;;;;1.30;0.80;;;13.50;99.90;;;;;;5070734;28;20396;-82
2024/03/02 10:29:56;;;;;;;1.40;0.70;;;13.70;99.90;;;;;;5071985;28;20393;-83
2024/03/02 10:32:22;;;;;;;1.20;0.60;;;13.90;99.90;;;;;;5071851;28;20971;-83
2024/03/02 10:34:50;;;;;;;0.90;0.80;;;13.70;99.90;;;;;;5073134;28;20390;-83
2024/03/02 10:37:17;;;;;;;0.85;0.70;;;12.40;99.90;;;;;;5068451;28;20460;-83
2024/03/02 10:39:42;;;;;;;1.08;0.75;;;13.70;99.90;;;;;;5072087;28;20399;-81
2024/03/02 10:42:08;;;;;;;1.40;0.80;;;13.80;99.90;;;;;;5068322;28;20407;-82
2024/03/02 10:44:35;;;;;;;0.80;0.70;;;13.90;99.90;;;;;;5069955;28;20380;-83
2024/03/02 10:47:03;;;;;;;1.10;0.82;;;13.90;99.90;;;;;;5071504;28;20443;-83
2024/03/02 10:49:30;;;;;;;1.00;0.80;;;13.00;99.90;;;;;;5069173;28;20920;-83
2024/03/02 10:51:57;;;;;;;0.90;0.80;;;12.90;99.90;;;;;;5067508;28;20399;-83
2024/03/02 10:54:26;;;;;;;1.30;0.70;;;13.90;99.90;;;;;;5068567;28;20393;-83
2024/03/02 10:56:53;;;;;;;2.03;1.25;;;13.10;99.90;;;;;;5068900;28;20394;-84
2024/03/02 10:59:29;;;;;;;1.40;1.00;;;13.50;99.90;;;;;;5069629;28;20399;-83
2024/03/02 11:01:59;;;;;;;2.25;1.00;;;14.30;99.90;;;;;;5067717;28;20427;-83
2024/03/02 11:04:30;;;;;;;0.77;0.70;;;14.40;99.90;;;;;;5069552;28;20401;-83
2024/03/02 11:07:07;;;;;;;1.20;0.70;;;13.90;99.90;;;;;;5072683;28;20392;-82
2024/03/02 11:09:44;;;;;;;1.30;0.80;;;14.50;99.90;;;;;;5077150;28;20626;-83
2024/03/02 11:12:19;;;;;;;1.60;0.60;;;14.50;99.90;;;;;;5071913;28;20408;-83
2024/03/02 11:14:45;;;;;;;0.88;0.70;;;14.60;99.90;;;;;;5071663;28;20399;-83
2024/03/02 11:17:13;;;;;;;1.10;0.70;;;15.40;99.90;;;;;;5072760;28;20395;-84
2024/03/02 11:19:40;;;;;;;2.30;1.00;;;15.20;99.90;;;;;;5071204;28;20912;-83
2024/03/02 11:22:06;;;;;;;0.93;0.80;;;16.80;99.90;;;;;;5070224;28;20427;-82
2024/03/02 11:24:35;;;;;;;0.88;0.60;;;15.10;99.90;;;;;;5067393;28;20400;-82
2024/03/02 11:27:15;;;;;;;0.60;0.60;;;15.60;99.90;;;;;;5069499;28;20886;-82
2024/03/02 11:29:41;;;;;;;1.00;0.87;;;15.40;99.90;;;;;;5083865;22;20902;-85
2024/03/02 11:32:21;;;;;;;0.80;0.70;;;16.70;99.90;;;;;;5039355;28;20421;-84
2024/03/02 11:34:49;;;;;;;1.17;0.70;;;17.00;99.90;;;;;;5045379;28;20390;-85
2024/03/02 11:37:16;;;;;;;1.48;0.90;;;16.60;99.90;;;;;;5069000;28;20419;-84
2024/03/02 11:39:44;;;;;;;1.10;0.98;;;17.50;99.90;;;;;;5066036;28;20408;-84
2024/03/02 11:42:11;;;;;;;1.20;1.10;;;18.40;99.90;;;;;;5059034;28;20431;-84
2024/03/02 11:44:38;;;;;;;1.20;0.90;;;18.60;99.90;;;;;;5061967;28;21378;-85
2024/03/02 11:47:10;;;;;;;1.00;0.70;;;17.40;99.90;;;;;;5061215;28;20705;-83
2024/03/02 11:49:41;;;;;;;1.00;0.90;;;18.50;99.90;;;;;;5064306;28;20412;-84
2024/03/02 11:52:09;;;;;;;0.95;0.80;;;21.10;99.90;;;;;;5052627;28;20401;-84
2024/03/02 11:54:46;;;;;;;1.00;0.90;;;19.10;99.90;;;;;;5057319;28;20397;-84
2024/03/02 11:57:14;;;;;;;1.00;0.90;;;19.70;99.90;;;;;;5054808;28;20402;-84
2024/03/02 11:59:40;;;;;;;0.80;0.70;;;19.10;99.90;;;;;;5049162;28;20424;-85
2024/03/02 12:02:06;;;;;;;0.90;0.80;;;21.20;99.90;;;;;;5033367;28;20413;-85
2024/03/02 12:04:31;;;;;;;1.40;1.00;;;18.70;99.90;;;;;;5040784;28;20764;-85
2024/03/02 12:07:01;;;;;;;1.00;0.80;;;20.80;99.90;;;;;;5035147;28;20405;-85
2024/03/02 12:09:30;;;;;;;1.10;0.70;;;;;;;;;;5039678;28;20399;-85
2024/03/02 12:12:09;;;;;;;0.70;0.60;;;20.70;99.90;;;;;;5041839;28;20791;-85
2024/03/02 12:14:37;;;;;;;1.80;0.73;;;20.60;99.90;;;;;;5042445;28;20397;-85
2024/03/02 12:17:03;;;;;;;0.80;0.80;;;22.10;99.90;;;;;;5036608;28;20382;-86
2024/03/02 12:19:30;;;;;;;0.80;0.80;;;20.80;99.90;;;;;;5033967;28;20395;-84
2024/03/02 12:22:01;;;;;;;0.90;0.80;;;21.40;99.90;;;;;;5037536;28;20405;-85
2024/03/02 12:24:28;;;;;;;2.10;0.90;;;19.70;99.90;;;;;;5034414;28;20395;-85
2024/03/02 12:26:54;;;;;;;0.90;0.70;;;21.00;99.90;;;;;;5032401;28;20394;-84
2024/03/02 12:29:21;;;;;;;0.77;0.70;;;17.80;99.90;;;;;;5033525;28;20490;-85
2024/03/02 12:31:48;;;;;;;1.10;0.80;;;16.80;99.90;;;;;;5033975;28;20405;-84
2024/03/02 12:34:16;;;;;;;1.13;0.80;;;16.90;99.90;;;;;;5035387;28;20403;-85
2024/03/02 12:36:42;;;;;;;1.30;0.90;;;19.50;99.90;;;;;;5032479;28;20489;-85
2024/03/02 12:39:09;;;;;;;0.90;0.70;;;18.60;99.90;;;;;;5037480;28;20455;-84
2024/03/02 12:41:38;;;;;;;1.00;0.90;;;21.40;99.90;;;;;;5035733;28;20389;-86
2024/03/02 12:44:05;;;;;;;0.95;0.80;;;20.80;99.90;;;;;;5039246;28;20414;-86
2024/03/02 12:46:32;;;;;;;0.80;0.70;;;21.20;99.90;;;;;;5036190;28;20405;-85
2024/03/02 12:48:59;;;;;;;1.20;0.60;;;21.30;99.90;;;;;;5033054;28;20556;-84
2024/03/02 12:51:24;;;;;;;1.05;0.70;;;22.00;1.00;;;;;;5032656;28;20883;-85
2024/03/02 12:53:57;;;;;;;2.10;0.70;;;20.70;1.00;;;;;;5037494;28;20455;-85
2024/03/02 12:56:24;;;;;;;0.67;0.60;;;20.90;1.00;;;;;;5037365;28;20484;-85
2024/03/02 12:58:56;;;;;;;1.20;0.70;;;21.10;1.00;;;;;;5032870;28;20412;-85